Harvest Peace — V7VE7 — position and weather

sailwx.info

Track history (hours):
 
Tides and Currents Weather Stations Pressure Air Temp Water Temp Dewpoint Dewpoint Depression Visibility Wind Speed Wind Dir Waves Ship Positions

Harvest Peace

Last reported at 2016-Oct-01 13:32 UTC. Time now 2016-Oct-01 13:54 UTC.
Position N 51°30' W 002°43'.

Length 225 m; draft 7.4 m.

Type: Cargo ship. MMSI: 538004103.

Date/timePositionNaut miles runAvg speedWind from/ knotsBaromVisibWave heightAir tempDewpointWater temp
2016-Oct-01 13:32N 51°30' W 002°43'0 0.0
2016-Oct-01 04:32N 51°30' W 002°43'0 0.0
2016-Oct-01 03:32N 51°30' W 002°43'0 0.0
2016-Oct-01 00:32N 51°30' W 002°43'0 0.0
2016-Sep-30 22:32N 51°30' W 002°43'0 0.0
2016-Sep-30 20:32N 51°30' W 002°43'0 0.0
2016-Sep-30 17:32N 51°30' W 002°43'0 0.0
2016-Sep-30 16:32N 51°30' W 002°43'0 0.0
2016-Sep-30 14:32N 51°30' W 002°43'0 0.0
2016-Sep-30 13:32N 51°30' W 002°43'0 0.0
2016-Sep-30 10:33N 51°30' W 002°43'0 0.0
2016-Sep-30 08:33N 51°30' W 002°43'0 0.1
2016-Sep-30 06:34N 51°30' W 002°44'27 8.9
2016-Sep-30 03:29N 51°21' W 003°25'24 1.8
2016-Sep-29 14:03N 51°20' W 004°03'  
2016-Sep-23 06:33N 52°24' W 005°51'2110.3
2016-Sep-23 04:33N 52°05' W 006°04'1211.7
2016-Sep-23 03:33N 51°59' W 006°21'1212.4
2016-Sep-23 02:33N 51°52' W 006°38'1212.2
2016-Sep-23 01:33N 51°48' W 006°56'1212.5
2016-Sep-23 00:33N 51°45' W 007°16'1312.5
2016-Sep-22 23:33N 51°44' W 007°36'23 7.7
2016-Sep-22 20:34N 51°45' W 008°14'6 0.7
2016-Sep-22 12:33N 51°50' W 008°20'0 0.0
2016-Sep-22 04:33N 51°50' W 008°20'0 0.0
2016-Sep-22 03:33N 51°50' W 008°20'0 0.0
2016-Sep-22 00:33N 51°50' W 008°20'0 0.0
2016-Sep-21 23:33N 51°50' W 008°20'0 0.0
2016-Sep-21 22:33N 51°50' W 008°20'2 0.8
2016-Sep-21 19:34N 51°51' W 008°16'9 3.0
2016-Sep-21 16:33N 51°42' W 008°15'  
Track history (hours):
 
Tides and Currents Weather Stations Pressure Air Temp Water Temp Dewpoint Dewpoint Depression Visibility Wind Speed Wind Dir Waves Ship Positions

Harvest Peace

Last reported at 2016-Oct-01 13:32 UTC. Time now 2016-Oct-01 13:54 UTC.
Position N 51°30' W 002°43'.

Length 225 m; draft 7.4 m.

Type: Cargo ship. MMSI: 538004103.

Date/timePositionNaut miles runAvg speedWind from/ knotsBaromVisibWave heightAir tempDewpointWater temp
2016-Oct-01 13:32N 51°30' W 002°43'0 0.0
2016-Oct-01 04:32N 51°30' W 002°43'0 0.0
2016-Oct-01 03:32N 51°30' W 002°43'0 0.0
2016-Oct-01 00:32N 51°30' W 002°43'0 0.0
2016-Sep-30 22:32N 51°30' W 002°43'0 0.0
2016-Sep-30 20:32N 51°30' W 002°43'0 0.0
2016-Sep-30 17:32N 51°30' W 002°43'0 0.0
2016-Sep-30 16:32N 51°30' W 002°43'0 0.0
2016-Sep-30 14:32N 51°30' W 002°43'0 0.0
2016-Sep-30 13:32N 51°30' W 002°43'0 0.0
2016-Sep-30 10:33N 51°30' W 002°43'0 0.0
2016-Sep-30 08:33N 51°30' W 002°43'0 0.1
2016-Sep-30 06:34N 51°30' W 002°44'27 8.9
2016-Sep-30 03:29N 51°21' W 003°25'24 1.8
2016-Sep-29 14:03N 51°20' W 004°03'  
2016-Sep-23 06:33N 52°24' W 005°51'2110.3
2016-Sep-23 04:33N 52°05' W 006°04'1211.7
2016-Sep-23 03:33N 51°59' W 006°21'1212.4
2016-Sep-23 02:33N 51°52' W 006°38'1212.2
2016-Sep-23 01:33N 51°48' W 006°56'1212.5
2016-Sep-23 00:33N 51°45' W 007°16'1312.5
2016-Sep-22 23:33N 51°44' W 007°36'23 7.7
2016-Sep-22 20:34N 51°45' W 008°14'6 0.7
2016-Sep-22 12:33N 51°50' W 008°20'0 0.0
2016-Sep-22 04:33N 51°50' W 008°20'0 0.0
2016-Sep-22 03:33N 51°50' W 008°20'0 0.0
2016-Sep-22 00:33N 51°50' W 008°20'0 0.0
2016-Sep-21 23:33N 51°50' W 008°20'0 0.0
2016-Sep-21 22:33N 51°50' W 008°20'2 0.8
2016-Sep-21 19:34N 51°51' W 008°16'9 3.0
2016-Sep-21 16:33N 51°42' W 008°15'  

Dump ship's entire track history